sensor_id;sensor_type;location;lat;lon;timestamp;P1;durP1;ratioP1;P2;durP2;ratioP2
54193;SDS011;40102;50.906;6.972;2023-06-14T00:01:35;6.47;;;4.18;;
54193;SDS011;40102;50.906;6.972;2023-06-14T00:04:01;6.20;;;4.05;;
54193;SDS011;40102;50.906;6.972;2023-06-14T00:06:26;4.43;;;4.03;;
54193;SDS011;40102;50.906;6.972;2023-06-14T00:08:53;5.70;;;4.00;;
54193;SDS011;40102;50.906;6.972;2023-06-14T00:11:19;4.80;;;3.80;;
54193;SDS011;40102;50.906;6.972;2023-06-14T00:13:44;5.03;;;3.95;;
54193;SDS011;40102;50.906;6.972;2023-06-14T00:16:10;5.40;;;3.92;;
54193;SDS011;40102;50.906;6.972;2023-06-14T00:18:36;5.70;;;3.95;;
54193;SDS011;40102;50.906;6.972;2023-06-14T00:21:02;5.28;;;4.18;;
54193;SDS011;40102;50.906;6.972;2023-06-14T00:23:29;5.00;;;4.15;;
54193;SDS011;40102;50.906;6.972;2023-06-14T00:25:54;7.93;;;4.30;;
54193;SDS011;40102;50.906;6.972;2023-06-14T00:28:20;5.32;;;4.00;;
54193;SDS011;40102;50.906;6.972;2023-06-14T00:30:45;5.90;;;4.22;;
54193;SDS011;40102;50.906;6.972;2023-06-14T00:33:11;5.78;;;4.35;;
54193;SDS011;40102;50.906;6.972;2023-06-14T00:35:37;4.70;;;3.75;;
54193;SDS011;40102;50.906;6.972;2023-06-14T00:38:02;5.60;;;4.20;;
54193;SDS011;40102;50.906;6.972;2023-06-14T00:40:27;5.18;;;4.68;;
54193;SDS011;40102;50.906;6.972;2023-06-14T00:42:53;4.28;;;3.83;;
54193;SDS011;40102;50.906;6.972;2023-06-14T00:45:18;4.68;;;4.00;;
54193;SDS011;40102;50.906;6.972;2023-06-14T00:47:44;7.70;;;4.25;;
54193;SDS011;40102;50.906;6.972;2023-06-14T00:50:11;4.35;;;3.95;;
54193;SDS011;40102;50.906;6.972;2023-06-14T00:52:36;6.55;;;4.10;;
54193;SDS011;40102;50.906;6.972;2023-06-14T00:55:02;7.30;;;3.92;;
54193;SDS011;40102;50.906;6.972;2023-06-14T00:57:27;4.30;;;3.88;;
54193;SDS011;40102;50.906;6.972;2023-06-14T00:59:54;4.95;;;4.15;;
54193;SDS011;40102;50.906;6.972;2023-06-14T01:02:20;5.57;;;3.75;;
54193;SDS011;40102;50.906;6.972;2023-06-14T01:04:46;6.05;;;3.65;;
54193;SDS011;40102;50.906;6.972;2023-06-14T01:12:44;4.47;;;3.78;;
54193;SDS011;40102;50.906;6.972;2023-06-14T01:15:12;5.90;;;4.15;;
54193;SDS011;40102;50.906;6.972;2023-06-14T01:17:38;5.95;;;4.30;;
54193;SDS011;40102;50.906;6.972;2023-06-14T01:20:06;4.80;;;4.05;;
54193;SDS011;40102;50.906;6.972;2023-06-14T01:22:55;5.70;;;4.10;;
54193;SDS011;40102;50.906;6.972;2023-06-14T01:25:23;7.38;;;3.88;;
54193;SDS011;40102;50.906;6.972;2023-06-14T01:27:50;5.28;;;4.00;;
54193;SDS011;40102;50.906;6.972;2023-06-14T01:30:18;6.28;;;3.80;;
54193;SDS011;40102;50.906;6.972;2023-06-14T01:32:46;5.20;;;3.78;;
54193;SDS011;40102;50.906;6.972;2023-06-14T01:35:16;8.25;;;4.10;;
54193;SDS011;40102;50.906;6.972;2023-06-14T01:37:42;6.60;;;4.32;;
54193;SDS011;40102;50.906;6.972;2023-06-14T01:40:09;4.97;;;3.80;;
54193;SDS011;40102;50.906;6.972;2023-06-14T01:42:36;5.68;;;3.95;;
54193;SDS011;40102;50.906;6.972;2023-06-14T01:45:03;5.53;;;4.10;;
54193;SDS011;40102;50.906;6.972;2023-06-14T01:47:31;5.25;;;4.00;;
54193;SDS011;40102;50.906;6.972;2023-06-14T01:49:57;4.80;;;4.10;;
54193;SDS011;40102;50.906;6.972;2023-06-14T01:52:23;5.00;;;4.20;;
54193;SDS011;40102;50.906;6.972;2023-06-14T01:54:49;4.82;;;4.30;;
54193;SDS011;40102;50.906;6.972;2023-06-14T01:57:18;6.15;;;4.43;;
54193;SDS011;40102;50.906;6.972;2023-06-14T01:59:45;4.78;;;4.10;;
54193;SDS011;40102;50.906;6.972;2023-06-14T02:02:13;5.57;;;4.43;;
54193;SDS011;40102;50.906;6.972;2023-06-14T02:04:39;6.22;;;4.32;;
54193;SDS011;40102;50.906;6.972;2023-06-14T02:07:04;5.22;;;4.18;;
54193;SDS011;40102;50.906;6.972;2023-06-14T02:09:30;4.90;;;4.10;;
54193;SDS011;40102;50.906;6.972;2023-06-14T02:11:58;6.88;;;4.47;;
54193;SDS011;40102;50.906;6.972;2023-06-14T02:14:24;6.32;;;4.75;;
54193;SDS011;40102;50.906;6.972;2023-06-14T02:16:49;7.10;;;4.22;;
54193;SDS011;40102;50.906;6.972;2023-06-14T02:19:15;4.53;;;4.00;;
54193;SDS011;40102;50.906;6.972;2023-06-14T02:21:42;5.72;;;4.43;;
54193;SDS011;40102;50.906;6.972;2023-06-14T02:24:07;4.70;;;4.07;;
54193;SDS011;40102;50.906;6.972;2023-06-14T02:26:33;5.43;;;4.30;;
54193;SDS011;40102;50.906;6.972;2023-06-14T02:28:59;5.00;;;4.28;;
54193;SDS011;40102;50.906;6.972;2023-06-14T02:31:24;8.57;;;4.47;;
54193;SDS011;40102;50.906;6.972;2023-06-14T02:33:50;7.70;;;4.45;;
54193;SDS011;40102;50.906;6.972;2023-06-14T02:36:15;6.00;;;4.00;;
54193;SDS011;40102;50.906;6.972;2023-06-14T02:38:41;5.00;;;4.20;;
54193;SDS011;40102;50.906;6.972;2023-06-14T02:41:07;6.40;;;4.18;;
54193;SDS011;40102;50.906;6.972;2023-06-14T02:43:32;5.07;;;4.25;;
54193;SDS011;40102;50.906;6.972;2023-06-14T02:45:57;5.10;;;4.40;;
54193;SDS011;40102;50.906;6.972;2023-06-14T02:48:23;4.45;;;4.05;;
54193;SDS011;40102;50.906;6.972;2023-06-14T02:50:48;5.05;;;3.97;;
54193;SDS011;40102;50.906;6.972;2023-06-14T02:53:14;6.10;;;4.22;;
54193;SDS011;40102;50.906;6.972;2023-06-14T02:55:39;5.60;;;4.40;;
54193;SDS011;40102;50.906;6.972;2023-06-14T02:58:05;6.15;;;4.22;;
54193;SDS011;40102;50.906;6.972;2023-06-14T03:00:31;5.63;;;4.35;;
54193;SDS011;40102;50.906;6.972;2023-06-14T03:02:56;5.40;;;4.20;;
54193;SDS011;40102;50.906;6.972;2023-06-14T03:05:22;4.78;;;4.20;;
54193;SDS011;40102;50.906;6.972;2023-06-14T03:07:48;6.32;;;4.22;;
54193;SDS011;40102;50.906;6.972;2023-06-14T03:10:18;4.88;;;4.07;;
54193;SDS011;40102;50.906;6.972;2023-06-14T03:12:43;4.80;;;4.30;;
54193;SDS011;40102;50.906;6.972;2023-06-14T03:15:09;5.82;;;4.50;;
54193;SDS011;40102;50.906;6.972;2023-06-14T03:17:36;4.70;;;4.15;;
54193;SDS011;40102;50.906;6.972;2023-06-14T03:20:04;4.85;;;4.30;;
54193;SDS011;40102;50.906;6.972;2023-06-14T03:22:30;5.53;;;4.57;;
54193;SDS011;40102;50.906;6.972;2023-06-14T03:24:57;4.95;;;4.43;;
54193;SDS011;40102;50.906;6.972;2023-06-14T03:27:24;5.60;;;4.40;;
54193;SDS011;40102;50.906;6.972;2023-06-14T03:29:49;5.05;;;4.50;;
54193;SDS011;40102;50.906;6.972;2023-06-14T03:32:15;7.78;;;4.82;;
54193;SDS011;40102;50.906;6.972;2023-06-14T03:34:40;5.13;;;4.20;;
54193;SDS011;40102;50.906;6.972;2023-06-14T03:37:06;5.45;;;3.97;;
54193;SDS011;40102;50.906;6.972;2023-06-14T03:39:31;4.72;;;4.18;;
54193;SDS011;40102;50.906;6.972;2023-06-14T03:41:57;4.72;;;3.78;;
54193;SDS011;40102;50.906;6.972;2023-06-14T03:44:22;6.47;;;4.30;;
54193;SDS011;40102;50.906;6.972;2023-06-14T03:46:47;5.22;;;3.90;;
54193;SDS011;40102;50.906;6.972;2023-06-14T03:49:13;5.63;;;4.35;;
54193;SDS011;40102;50.906;6.972;2023-06-14T03:51:41;5.32;;;4.38;;
54193;SDS011;40102;50.906;6.972;2023-06-14T03:54:10;5.38;;;4.45;;
54193;SDS011;40102;50.906;6.972;2023-06-14T03:56:35;4.90;;;4.40;;
54193;SDS011;40102;50.906;6.972;2023-06-14T03:59:01;5.15;;;4.43;;
54193;SDS011;40102;50.906;6.972;2023-06-14T04:01:27;6.60;;;4.53;;
54193;SDS011;40102;50.906;6.972;2023-06-14T04:03:57;5.03;;;4.45;;
54193;SDS011;40102;50.906;6.972;2023-06-14T04:06:23;6.60;;;4.25;;
54193;SDS011;40102;50.906;6.972;2023-06-14T04:08:50;5.35;;;4.38;;
54193;SDS011;40102;50.906;6.972;2023-06-14T04:11:16;5.72;;;4.50;;
54193;SDS011;40102;50.906;6.972;2023-06-14T04:13:42;6.55;;;4.90;;
54193;SDS011;40102;50.906;6.972;2023-06-14T04:16:09;4.63;;;4.20;;
54193;SDS011;40102;50.906;6.972;2023-06-14T04:18:34;5.57;;;4.47;;
54193;SDS011;40102;50.906;6.972;2023-06-14T04:21:00;8.05;;;4.45;;
54193;SDS011;40102;50.906;6.972;2023-06-14T04:23:25;5.25;;;4.28;;
54193;SDS011;40102;50.906;6.972;2023-06-14T04:25:53;5.20;;;4.30;;
54193;SDS011;40102;50.906;6.972;2023-06-14T04:28:18;6.05;;;4.38;;
54193;SDS011;40102;50.906;6.972;2023-06-14T04:30:44;7.43;;;4.95;;
54193;SDS011;40102;50.906;6.972;2023-06-14T04:33:10;5.07;;;4.03;;
54193;SDS011;40102;50.906;6.972;2023-06-14T04:35:36;5.65;;;4.43;;
54193;SDS011;40102;50.906;6.972;2023-06-14T04:38:05;5.47;;;4.30;;
54193;SDS011;40102;50.906;6.972;2023-06-14T04:40:34;4.65;;;4.15;;
54193;SDS011;40102;50.906;6.972;2023-06-14T04:43:04;6.95;;;4.45;;
54193;SDS011;40102;50.906;6.972;2023-06-14T04:45:30;6.50;;;4.63;;
54193;SDS011;40102;50.906;6.972;2023-06-14T04:47:58;4.60;;;3.88;;
54193;SDS011;40102;50.906;6.972;2023-06-14T04:50:24;4.97;;;4.05;;
54193;SDS011;40102;50.906;6.972;2023-06-14T04:52:50;4.47;;;4.00;;
54193;SDS011;40102;50.906;6.972;2023-06-14T04:55:16;6.28;;;4.30;;
54193;SDS011;40102;50.906;6.972;2023-06-14T04:57:44;5.88;;;4.15;;
54193;SDS011;40102;50.906;6.972;2023-06-14T05:00:09;6.20;;;4.20;;
54193;SDS011;40102;50.906;6.972;2023-06-14T05:02:36;4.30;;;3.80;;
54193;SDS011;40102;50.906;6.972;2023-06-14T05:05:03;4.88;;;4.10;;
54193;SDS011;40102;50.906;6.972;2023-06-14T05:07:29;5.25;;;3.90;;
54193;SDS011;40102;50.906;6.972;2023-06-14T05:09:55;4.25;;;3.80;;
54193;SDS011;40102;50.906;6.972;2023-06-14T05:12:20;3.65;;;3.30;;
54193;SDS011;40102;50.906;6.972;2023-06-14T05:14:46;5.65;;;3.70;;
54193;SDS011;40102;50.906;6.972;2023-06-14T05:17:11;4.90;;;3.40;;
54193;SDS011;40102;50.906;6.972;2023-06-14T05:19:36;4.35;;;3.47;;
54193;SDS011;40102;50.906;6.972;2023-06-14T05:22:02;4.70;;;3.22;;
54193;SDS011;40102;50.906;6.972;2023-06-14T05:24:28;4.63;;;3.50;;
54193;SDS011;40102;50.906;6.972;2023-06-14T05:26:55;4.60;;;3.30;;
54193;SDS011;40102;50.906;6.972;2023-06-14T05:29:21;4.57;;;3.70;;
54193;SDS011;40102;50.906;6.972;2023-06-14T05:31:46;8.35;;;3.70;;
54193;SDS011;40102;50.906;6.972;2023-06-14T05:34:12;4.45;;;3.55;;
54193;SDS011;40102;50.906;6.972;2023-06-14T05:36:40;4.60;;;3.20;;
54193;SDS011;40102;50.906;6.972;2023-06-14T05:39:05;5.22;;;3.40;;
54193;SDS011;40102;50.906;6.972;2023-06-14T05:41:31;6.03;;;3.78;;
54193;SDS011;40102;50.906;6.972;2023-06-14T05:43:57;10.13;;;3.83;;
54193;SDS011;40102;50.906;6.972;2023-06-14T05:46:23;5.25;;;3.45;;
54193;SDS011;40102;50.906;6.972;2023-06-14T05:48:52;7.83;;;3.40;;
54193;SDS011;40102;50.906;6.972;2023-06-14T05:51:18;6.72;;;3.35;;
54193;SDS011;40102;50.906;6.972;2023-06-14T05:53:44;5.38;;;3.35;;
54193;SDS011;40102;50.906;6.972;2023-06-14T05:56:11;5.95;;;3.15;;
54193;SDS011;40102;50.906;6.972;2023-06-14T05:58:36;3.28;;;2.78;;
54193;SDS011;40102;50.906;6.972;2023-06-14T06:01:02;3.50;;;2.60;;
54193;SDS011;40102;50.906;6.972;2023-06-14T06:03:27;3.58;;;2.75;;
54193;SDS011;40102;50.906;6.972;2023-06-14T06:05:54;3.70;;;2.85;;
54193;SDS011;40102;50.906;6.972;2023-06-14T06:08:19;5.28;;;2.90;;
54193;SDS011;40102;50.906;6.972;2023-06-14T06:10:45;4.68;;;2.92;;
54193;SDS011;40102;50.906;6.972;2023-06-14T06:13:11;4.75;;;2.60;;
54193;SDS011;40102;50.906;6.972;2023-06-14T06:15:36;4.13;;;2.90;;
54193;SDS011;40102;50.906;6.972;2023-06-14T06:18:02;3.63;;;3.13;;
54193;SDS011;40102;50.906;6.972;2023-06-14T06:20:27;4.78;;;2.90;;
54193;SDS011;40102;50.906;6.972;2023-06-14T06:22:56;6.28;;;2.83;;
54193;SDS011;40102;50.906;6.972;2023-06-14T06:25:22;5.03;;;2.85;;
54193;SDS011;40102;50.906;6.972;2023-06-14T06:27:48;3.40;;;2.70;;
54193;SDS011;40102;50.906;6.972;2023-06-14T06:30:13;4.13;;;2.63;;
54193;SDS011;40102;50.906;6.972;2023-06-14T06:32:42;5.85;;;2.70;;
54193;SDS011;40102;50.906;6.972;2023-06-14T06:35:07;4.90;;;2.92;;
54193;SDS011;40102;50.906;6.972;2023-06-14T06:37:33;5.68;;;2.65;;
54193;SDS011;40102;50.906;6.972;2023-06-14T06:39:59;5.63;;;2.95;;
54193;SDS011;40102;50.906;6.972;2023-06-14T06:42:24;4.18;;;2.97;;
54193;SDS011;40102;50.906;6.972;2023-06-14T06:44:50;4.38;;;2.78;;
54193;SDS011;40102;50.906;6.972;2023-06-14T06:47:15;11.63;;;7.70;;
54193;SDS011;40102;50.906;6.972;2023-06-14T06:49:41;6.13;;;3.22;;
54193;SDS011;40102;50.906;6.972;2023-06-14T06:52:06;3.67;;;2.63;;
54193;SDS011;40102;50.906;6.972;2023-06-14T06:54:41;6.47;;;2.92;;
54193;SDS011;40102;50.906;6.972;2023-06-14T06:57:07;9.07;;;3.30;;
54193;SDS011;40102;50.906;6.972;2023-06-14T06:59:32;3.70;;;2.63;;
54193;SDS011;40102;50.906;6.972;2023-06-14T07:01:58;8.48;;;2.47;;
54193;SDS011;40102;50.906;6.972;2023-06-14T07:04:23;4.00;;;2.50;;
54193;SDS011;40102;50.906;6.972;2023-06-14T07:06:49;8.50;;;2.50;;
54193;SDS011;40102;50.906;6.972;2023-06-14T07:09:15;2.83;;;2.53;;
54193;SDS011;40102;50.906;6.972;2023-06-14T07:11:43;3.05;;;2.67;;
54193;SDS011;40102;50.906;6.972;2023-06-14T07:14:10;3.20;;;2.40;;
54193;SDS011;40102;50.906;6.972;2023-06-14T07:16:36;5.55;;;2.63;;
54193;SDS011;40102;50.906;6.972;2023-06-14T07:19:02;2.90;;;2.50;;
54193;SDS011;40102;50.906;6.972;2023-06-14T07:21:28;4.68;;;2.35;;
54193;SDS011;40102;50.906;6.972;2023-06-14T07:23:54;3.53;;;2.60;;
54193;SDS011;40102;50.906;6.972;2023-06-14T07:26:19;3.50;;;2.22;;
54193;SDS011;40102;50.906;6.972;2023-06-14T07:28:49;4.88;;;2.42;;
54193;SDS011;40102;50.906;6.972;2023-06-14T07:31:17;7.07;;;2.90;;
54193;SDS011;40102;50.906;6.972;2023-06-14T07:33:44;5.50;;;2.20;;
54193;SDS011;40102;50.906;6.972;2023-06-14T07:36:10;3.13;;;2.15;;
54193;SDS011;40102;50.906;6.972;2023-06-14T07:38:35;3.50;;;2.20;;
54193;SDS011;40102;50.906;6.972;2023-06-14T07:41:01;4.20;;;2.60;;
54193;SDS011;40102;50.906;6.972;2023-06-14T07:43:27;5.70;;;2.42;;
54193;SDS011;40102;50.906;6.972;2023-06-14T07:45:52;3.38;;;2.40;;
54193;SDS011;40102;50.906;6.972;2023-06-14T07:48:18;5.85;;;2.40;;
54193;SDS011;40102;50.906;6.972;2023-06-14T07:50:43;5.30;;;2.33;;
54193;SDS011;40102;50.906;6.972;2023-06-14T07:53:09;3.10;;;2.08;;
54193;SDS011;40102;50.906;6.972;2023-06-14T07:55:35;3.25;;;1.70;;
54193;SDS011;40102;50.906;6.972;2023-06-14T07:58:02;3.05;;;1.80;;
54193;SDS011;40102;50.906;6.972;2023-06-14T08:00:28;2.38;;;1.58;;
54193;SDS011;40102;50.906;6.972;2023-06-14T08:02:53;3.72;;;1.70;;
54193;SDS011;40102;50.906;6.972;2023-06-14T08:07:49;1.90;;;1.40;;
54193;SDS011;40102;50.906;6.972;2023-06-14T08:10:14;3.15;;;1.30;;
54193;SDS011;40102;50.906;6.972;2023-06-14T08:12:39;3.17;;;1.30;;
54193;SDS011;40102;50.906;6.972;2023-06-14T08:15:05;4.57;;;1.83;;
54193;SDS011;40102;50.906;6.972;2023-06-14T08:17:30;2.90;;;1.40;;
54193;SDS011;40102;50.906;6.972;2023-06-14T08:19:56;1.48;;;1.30;;
54193;SDS011;40102;50.906;6.972;2023-06-14T08:22:22;2.90;;;1.30;;
54193;SDS011;40102;50.906;6.972;2023-06-14T08:24:49;1.85;;;1.25;;
54193;SDS011;40102;50.906;6.972;2023-06-14T08:27:14;1.92;;;1.10;;
54193;SDS011;40102;50.906;6.972;2023-06-14T08:29:40;2.25;;;1.30;;
54193;SDS011;40102;50.906;6.972;2023-06-14T08:32:06;1.38;;;1.27;;
54193;SDS011;40102;50.906;6.972;2023-06-14T08:34:32;1.50;;;1.15;;
54193;SDS011;40102;50.906;6.972;2023-06-14T08:36:57;1.50;;;1.15;;
54193;SDS011;40102;50.906;6.972;2023-06-14T08:39:23;1.48;;;1.10;;
54193;SDS011;40102;50.906;6.972;2023-06-14T08:41:48;2.05;;;1.38;;
54193;SDS011;40102;50.906;6.972;2023-06-14T08:44:16;3.47;;;1.50;;
54193;SDS011;40102;50.906;6.972;2023-06-14T08:46:42;1.70;;;1.40;;
54193;SDS011;40102;50.906;6.972;2023-06-14T08:49:08;2.00;;;1.30;;
54193;SDS011;40102;50.906;6.972;2023-06-14T08:51:36;2.53;;;1.40;;
54193;SDS011;40102;50.906;6.972;2023-06-14T08:54:02;3.50;;;1.35;;
54193;SDS011;40102;50.906;6.972;2023-06-14T08:56:29;1.90;;;1.30;;
54193;SDS011;40102;50.906;6.972;2023-06-14T08:58:55;5.25;;;1.50;;
54193;SDS011;40102;50.906;6.972;2023-06-14T09:01:22;3.10;;;1.38;;
54193;SDS011;40102;50.906;6.972;2023-06-14T09:03:48;2.85;;;1.20;;
54193;SDS011;40102;50.906;6.972;2023-06-14T09:06:14;2.80;;;1.30;;
54193;SDS011;40102;50.906;6.972;2023-06-14T09:08:43;1.88;;;1.40;;
54193;SDS011;40102;50.906;6.972;2023-06-14T09:11:10;1.58;;;1.30;;
54193;SDS011;40102;50.906;6.972;2023-06-14T09:13:40;2.50;;;1.50;;
54193;SDS011;40102;50.906;6.972;2023-06-14T09:16:06;1.85;;;1.25;;
54193;SDS011;40102;50.906;6.972;2023-06-14T09:18:36;1.65;;;1.40;;
54193;SDS011;40102;50.906;6.972;2023-06-14T09:21:04;3.35;;;1.20;;
54193;SDS011;40102;50.906;6.972;2023-06-14T09:23:42;1.42;;;1.20;;
54193;SDS011;40102;50.906;6.972;2023-06-14T09:26:13;2.15;;;1.27;;
54193;SDS011;40102;50.906;6.972;2023-06-14T09:28:47;1.20;;;1.10;;
54193;SDS011;40102;50.906;6.972;2023-06-14T09:31:14;1.80;;;1.40;;
54193;SDS011;40102;50.906;6.972;2023-06-14T09:33:42;1.65;;;1.15;;
54193;SDS011;40102;50.906;6.972;2023-06-14T09:36:15;1.20;;;1.10;;
54193;SDS011;40102;50.906;6.972;2023-06-14T09:41:20;2.92;;;1.30;;
54193;SDS011;40102;50.906;6.972;2023-06-14T09:43:46;2.35;;;1.40;;
54193;SDS011;40102;50.906;6.972;2023-06-14T09:46:12;3.15;;;1.20;;
54193;SDS011;40102;50.906;6.972;2023-06-14T09:48:38;3.80;;;1.40;;
54193;SDS011;40102;50.906;6.972;2023-06-14T09:51:08;1.63;;;1.20;;
54193;SDS011;40102;50.906;6.972;2023-06-14T09:56:03;2.53;;;1.30;;
54193;SDS011;40102;50.906;6.972;2023-06-14T09:58:31;3.00;;;1.40;;
54193;SDS011;40102;50.906;6.972;2023-06-14T10:01:00;3.03;;;1.42;;
54193;SDS011;40102;50.906;6.972;2023-06-14T10:03:29;2.80;;;1.30;;
54193;SDS011;40102;50.906;6.972;2023-06-14T10:05:56;4.13;;;1.50;;
54193;SDS011;40102;50.906;6.972;2023-06-14T10:08:27;4.07;;;2.15;;
54193;SDS011;40102;50.906;6.972;2023-06-14T10:10:55;3.28;;;1.40;;
54193;SDS011;40102;50.906;6.972;2023-06-14T10:13:21;1.90;;;1.30;;
54193;SDS011;40102;50.906;6.972;2023-06-14T10:16:08;3.03;;;1.50;;
54193;SDS011;40102;50.906;6.972;2023-06-14T10:19:23;3.65;;;1.33;;
54193;SDS011;40102;50.906;6.972;2023-06-14T10:21:46;2.70;;;1.40;;
54193;SDS011;40102;50.906;6.972;2023-06-14T10:24:27;2.22;;;1.10;;
54193;SDS011;40102;50.906;6.972;2023-06-14T10:26:57;1.60;;;1.10;;
54193;SDS011;40102;50.906;6.972;2023-06-14T10:29:24;1.27;;;1.17;;
54193;SDS011;40102;50.906;6.972;2023-06-14T10:31:50;1.98;;;1.20;;
54193;SDS011;40102;50.906;6.972;2023-06-14T10:34:28;2.53;;;1.30;;
54193;SDS011;40102;50.906;6.972;2023-06-14T10:37:01;1.63;;;1.20;;
54193;SDS011;40102;50.906;6.972;2023-06-14T10:39:48;2.20;;;1.20;;
54193;SDS011;40102;50.906;6.972;2023-06-14T10:42:14;1.30;;;1.20;;
54193;SDS011;40102;50.906;6.972;2023-06-14T10:44:41;1.70;;;1.20;;
54193;SDS011;40102;50.906;6.972;2023-06-14T10:47:32;3.17;;;1.42;;
54193;SDS011;40102;50.906;6.972;2023-06-14T10:50:04;2.60;;;1.38;;
54193;SDS011;40102;50.906;6.972;2023-06-14T10:52:35;3.33;;;1.20;;
54193;SDS011;40102;50.906;6.972;2023-06-14T10:55:07;2.35;;;1.35;;
54193;SDS011;40102;50.906;6.972;2023-06-14T10:57:46;2.53;;;1.30;;
54193;SDS011;40102;50.906;6.972;2023-06-14T11:00:16;1.95;;;1.30;;
54193;SDS011;40102;50.906;6.972;2023-06-14T11:05:53;2.83;;;1.30;;
54193;SDS011;40102;50.906;6.972;2023-06-14T11:08:40;2.25;;;1.30;;
54193;SDS011;40102;50.906;6.972;2023-06-14T11:11:21;1.77;;;1.23;;
54193;SDS011;40102;50.906;6.972;2023-06-14T11:13:51;0.80;;;0.80;;
54193;SDS011;40102;50.906;6.972;2023-06-14T11:16:17;1.38;;;1.10;;
54193;SDS011;40102;50.906;6.972;2023-06-14T11:18:46;2.05;;;1.10;;
54193;SDS011;40102;50.906;6.972;2023-06-14T11:21:16;1.40;;;1.13;;
54193;SDS011;40102;50.906;6.972;2023-06-14T11:23:48;2.80;;;1.30;;
54193;SDS011;40102;50.906;6.972;2023-06-14T11:26:14;1.52;;;1.30;;
54193;SDS011;40102;50.906;6.972;2023-06-14T11:28:40;1.42;;;1.30;;
54193;SDS011;40102;50.906;6.972;2023-06-14T11:31:06;4.07;;;1.48;;
54193;SDS011;40102;50.906;6.972;2023-06-14T11:33:33;1.55;;;1.45;;
54193;SDS011;40102;50.906;6.972;2023-06-14T11:36:01;2.08;;;1.40;;
54193;SDS011;40102;50.906;6.972;2023-06-14T11:38:27;2.05;;;1.30;;
54193;SDS011;40102;50.906;6.972;2023-06-14T11:40:52;3.95;;;1.30;;
54193;SDS011;40102;50.906;6.972;2023-06-14T11:43:18;1.50;;;1.40;;
54193;SDS011;40102;50.906;6.972;2023-06-14T11:45:43;4.60;;;1.60;;
54193;SDS011;40102;50.906;6.972;2023-06-14T11:48:13;2.58;;;1.20;;
54193;SDS011;40102;50.906;6.972;2023-06-14T11:50:39;3.40;;;1.60;;
54193;SDS011;40102;50.906;6.972;2023-06-14T11:53:04;2.60;;;1.52;;
54193;SDS011;40102;50.906;6.972;2023-06-14T11:55:38;1.85;;;1.40;;
54193;SDS011;40102;50.906;6.972;2023-06-14T11:58:06;2.47;;;1.38;;
54193;SDS011;40102;50.906;6.972;2023-06-14T12:00:35;4.93;;;1.40;;
54193;SDS011;40102;50.906;6.972;2023-06-14T12:03:02;4.82;;;1.48;;
54193;SDS011;40102;50.906;6.972;2023-06-14T12:05:28;2.90;;;1.52;;
54193;SDS011;40102;50.906;6.972;2023-06-14T12:08:01;4.53;;;1.40;;
54193;SDS011;40102;50.906;6.972;2023-06-14T12:10:28;2.33;;;1.17;;
54193;SDS011;40102;50.906;6.972;2023-06-14T12:12:58;2.53;;;1.75;;
54193;SDS011;40102;50.906;6.972;2023-06-14T12:15:24;1.75;;;1.33;;
54193;SDS011;40102;50.906;6.972;2023-06-14T12:17:53;4.78;;;1.40;;
54193;SDS011;40102;50.906;6.972;2023-06-14T12:20:19;1.63;;;1.27;;
54193;SDS011;40102;50.906;6.972;2023-06-14T12:22:53;1.60;;;1.30;;
54193;SDS011;40102;50.906;6.972;2023-06-14T12:25:33;2.17;;;1.05;;
54193;SDS011;40102;50.906;6.972;2023-06-14T12:28:06;1.90;;;1.20;;
54193;SDS011;40102;50.906;6.972;2023-06-14T12:30:33;2.22;;;1.33;;
54193;SDS011;40102;50.906;6.972;2023-06-14T12:33:01;3.10;;;1.15;;
54193;SDS011;40102;50.906;6.972;2023-06-14T12:35:27;4.60;;;1.10;;
54193;SDS011;40102;50.906;6.972;2023-06-14T12:37:52;2.45;;;1.10;;
54193;SDS011;40102;50.906;6.972;2023-06-14T12:40:18;4.68;;;1.25;;
54193;SDS011;40102;50.906;6.972;2023-06-14T12:42:44;1.77;;;1.30;;
54193;SDS011;40102;50.906;6.972;2023-06-14T12:45:11;1.17;;;1.00;;
54193;SDS011;40102;50.906;6.972;2023-06-14T12:47:37;1.77;;;1.40;;
54193;SDS011;40102;50.906;6.972;2023-06-14T12:50:02;4.97;;;1.27;;
54193;SDS011;40102;50.906;6.972;2023-06-14T12:52:28;1.52;;;1.10;;
54193;SDS011;40102;50.906;6.972;2023-06-14T12:54:53;2.40;;;1.00;;
54193;SDS011;40102;50.906;6.972;2023-06-14T12:57:22;1.40;;;1.00;;
54193;SDS011;40102;50.906;6.972;2023-06-14T12:59:48;2.67;;;1.00;;
54193;SDS011;40102;50.906;6.972;2023-06-14T13:02:17;3.30;;;1.20;;
54193;SDS011;40102;50.906;6.972;2023-06-14T13:04:43;2.58;;;1.20;;
54193;SDS011;40102;50.906;6.972;2023-06-14T13:07:09;5.05;;;1.20;;
54193;SDS011;40102;50.906;6.972;2023-06-14T13:09:35;2.33;;;0.90;;
54193;SDS011;40102;50.906;6.972;2023-06-14T13:12:01;4.20;;;1.02;;
54193;SDS011;40102;50.906;6.972;2023-06-14T13:14:30;3.15;;;1.13;;
54193;SDS011;40102;50.906;6.972;2023-06-14T13:16:57;5.63;;;1.55;;
54193;SDS011;40102;50.906;6.972;2023-06-14T13:19:22;2.50;;;1.00;;
54193;SDS011;40102;50.906;6.972;2023-06-14T13:21:48;1.42;;;1.00;;
54193;SDS011;40102;50.906;6.972;2023-06-14T13:24:14;3.33;;;1.10;;
54193;SDS011;40102;50.906;6.972;2023-06-14T13:26:40;4.60;;;1.20;;
54193;SDS011;40102;50.906;6.972;2023-06-14T13:29:05;2.72;;;1.40;;
54193;SDS011;40102;50.906;6.972;2023-06-14T13:31:31;3.08;;;1.17;;
54193;SDS011;40102;50.906;6.972;2023-06-14T13:33:56;1.35;;;1.00;;
54193;SDS011;40102;50.906;6.972;2023-06-14T13:36:22;2.38;;;1.23;;
54193;SDS011;40102;50.906;6.972;2023-06-14T13:38:47;3.80;;;1.20;;
54193;SDS011;40102;50.906;6.972;2023-06-14T13:41:13;1.92;;;1.10;;
54193;SDS011;40102;50.906;6.972;2023-06-14T13:43:41;4.13;;;1.30;;
54193;SDS011;40102;50.906;6.972;2023-06-14T13:46:06;3.08;;;1.30;;
54193;SDS011;40102;50.906;6.972;2023-06-14T13:48:32;3.95;;;1.20;;
54193;SDS011;40102;50.906;6.972;2023-06-14T13:50:59;3.20;;;1.25;;
54193;SDS011;40102;50.906;6.972;2023-06-14T13:53:25;2.47;;;1.30;;
54193;SDS011;40102;50.906;6.972;2023-06-14T13:55:51;2.20;;;1.25;;
54193;SDS011;40102;50.906;6.972;2023-06-14T13:58:17;2.20;;;1.35;;
54193;SDS011;40102;50.906;6.972;2023-06-14T14:00:46;2.88;;;1.40;;
54193;SDS011;40102;50.906;6.972;2023-06-14T14:03:11;6.25;;;1.48;;
54193;SDS011;40102;50.906;6.972;2023-06-14T14:05:37;4.30;;;1.27;;
54193;SDS011;40102;50.906;6.972;2023-06-14T14:08:03;2.55;;;1.40;;
54193;SDS011;40102;50.906;6.972;2023-06-14T14:10:29;3.63;;;1.35;;
54193;SDS011;40102;50.906;6.972;2023-06-14T14:12:54;3.30;;;1.50;;
54193;SDS011;40102;50.906;6.972;2023-06-14T14:15:20;3.10;;;1.33;;
54193;SDS011;40102;50.906;6.972;2023-06-14T14:17:45;2.05;;;1.40;;
54193;SDS011;40102;50.906;6.972;2023-06-14T14:20:12;3.20;;;1.20;;
54193;SDS011;40102;50.906;6.972;2023-06-14T14:22:40;3.83;;;1.30;;
54193;SDS011;40102;50.906;6.972;2023-06-14T14:25:12;5.57;;;1.60;;
54193;SDS011;40102;50.906;6.972;2023-06-14T14:27:37;2.92;;;1.60;;
54193;SDS011;40102;50.906;6.972;2023-06-14T14:30:03;1.90;;;1.40;;
54193;SDS011;40102;50.906;6.972;2023-06-14T14:32:33;2.80;;;1.30;;
54193;SDS011;40102;50.906;6.972;2023-06-14T14:34:58;3.88;;;1.30;;
54193;SDS011;40102;50.906;6.972;2023-06-14T14:37:23;3.80;;;1.45;;
54193;SDS011;40102;50.906;6.972;2023-06-14T14:39:49;1.95;;;1.50;;
54193;SDS011;40102;50.906;6.972;2023-06-14T14:42:15;1.63;;;1.50;;
54193;SDS011;40102;50.906;6.972;2023-06-14T14:44:40;1.85;;;1.45;;
54193;SDS011;40102;50.906;6.972;2023-06-14T14:47:05;2.45;;;1.67;;
54193;SDS011;40102;50.906;6.972;2023-06-14T14:49:31;1.80;;;1.40;;
54193;SDS011;40102;50.906;6.972;2023-06-14T14:51:57;2.80;;;1.40;;
54193;SDS011;40102;50.906;6.972;2023-06-14T14:54:25;1.92;;;1.30;;
54193;SDS011;40102;50.906;6.972;2023-06-14T14:56:54;2.00;;;1.30;;
54193;SDS011;40102;50.906;6.972;2023-06-14T14:59:20;5.27;;;1.30;;
54193;SDS011;40102;50.906;6.972;2023-06-14T15:01:47;1.42;;;1.30;;
54193;SDS011;40102;50.906;6.972;2023-06-14T15:04:12;1.80;;;1.38;;